sensor_id;sensor_type;location;lat;lon;timestamp;temperature;humidity
3310;DHT22;1667;53.238;10.394;2024-03-02T00:00:57;12.30;99.90
3310;DHT22;1667;53.238;10.394;2024-03-02T00:05:56;12.30;99.90
3310;DHT22;1667;53.238;10.394;2024-03-02T00:10:59;12.20;99.90
3310;DHT22;1667;53.238;10.394;2024-03-02T00:16:00;12.20;99.90
3310;DHT22;1667;53.238;10.394;2024-03-02T00:21:03;12.20;99.90
3310;DHT22;1667;53.238;10.394;2024-03-02T00:26:11;12.20;99.90
3310;DHT22;1667;53.238;10.394;2024-03-02T00:31:12;12.20;99.90
3310;DHT22;1667;53.238;10.394;2024-03-02T00:36:13;12.10;99.90
3310;DHT22;1667;53.238;10.394;2024-03-02T00:41:20;12.10;99.90
3310;DHT22;1667;53.238;10.394;2024-03-02T00:46:21;12.10;99.90
3310;DHT22;1667;53.238;10.394;2024-03-02T00:51:21;12.10;99.90
3310;DHT22;1667;53.238;10.394;2024-03-02T00:56:22;12.10;99.90
3310;DHT22;1667;53.238;10.394;2024-03-02T01:01:22;12.10;99.90
3310;DHT22;1667;53.238;10.394;2024-03-02T01:06:21;12.10;99.90
3310;DHT22;1667;53.238;10.394;2024-03-02T01:11:22;12.10;99.90
3310;DHT22;1667;53.238;10.394;2024-03-02T01:16:21;12.10;99.90
3310;DHT22;1667;53.238;10.394;2024-03-02T01:21:20;12.10;99.90
3310;DHT22;1667;53.238;10.394;2024-03-02T01:26:19;12.10;99.90
3310;DHT22;1667;53.238;10.394;2024-03-02T01:31:20;12.00;99.90
3310;DHT22;1667;53.238;10.394;2024-03-02T01:36:19;12.00;99.90
3310;DHT22;1667;53.238;10.394;2024-03-02T01:41:18;12.00;99.90
3310;DHT22;1667;53.238;10.394;2024-03-02T01:46:17;12.00;99.90
3310;DHT22;1667;53.238;10.394;2024-03-02T01:51:17;12.00;99.90
3310;DHT22;1667;53.238;10.394;2024-03-02T01:56:17;12.00;99.90
3310;DHT22;1667;53.238;10.394;2024-03-02T02:01:16;12.00;99.90
3310;DHT22;1667;53.238;10.394;2024-03-02T02:06:16;11.90;99.90
3310;DHT22;1667;53.238;10.394;2024-03-02T02:11:16;11.90;99.90
3310;DHT22;1667;53.238;10.394;2024-03-02T02:16:15;11.90;99.90
3310;DHT22;1667;53.238;10.394;2024-03-02T02:21:14;11.90;99.90
3310;DHT22;1667;53.238;10.394;2024-03-02T02:26:15;11.90;99.90
3310;DHT22;1667;53.238;10.394;2024-03-02T02:31:14;11.90;99.90
3310;DHT22;1667;53.238;10.394;2024-03-02T02:36:13;11.80;99.90
3310;DHT22;1667;53.238;10.394;2024-03-02T02:41:12;11.80;99.90
3310;DHT22;1667;53.238;10.394;2024-03-02T02:46:12;11.80;99.90
3310;DHT22;1667;53.238;10.394;2024-03-02T02:51:11;11.80;99.90
3310;DHT22;1667;53.238;10.394;2024-03-02T02:56:10;11.80;99.90
3310;DHT22;1667;53.238;10.394;2024-03-02T03:01:11;11.70;99.90
3310;DHT22;1667;53.238;10.394;2024-03-02T03:06:11;11.70;99.90
3310;DHT22;1667;53.238;10.394;2024-03-02T03:11:10;11.70;99.90
3310;DHT22;1667;53.238;10.394;2024-03-02T03:16:09;11.60;99.90
3310;DHT22;1667;53.238;10.394;2024-03-02T03:21:09;11.60;99.90
3310;DHT22;1667;53.238;10.394;2024-03-02T03:26:08;11.60;99.90
3310;DHT22;1667;53.238;10.394;2024-03-02T03:31:08;11.60;99.90
3310;DHT22;1667;53.238;10.394;2024-03-02T03:36:09;11.60;99.90
3310;DHT22;1667;53.238;10.394;2024-03-02T03:41:08;11.60;99.90
3310;DHT22;1667;53.238;10.394;2024-03-02T03:46:07;11.60;99.90
3310;DHT22;1667;53.238;10.394;2024-03-02T03:51:06;11.60;99.90
3310;DHT22;1667;53.238;10.394;2024-03-02T03:56:07;11.60;99.90
3310;DHT22;1667;53.238;10.394;2024-03-02T04:01:05;11.60;99.90
3310;DHT22;1667;53.238;10.394;2024-03-02T04:06:05;11.50;99.90
3310;DHT22;1667;53.238;10.394;2024-03-02T04:11:04;11.40;99.90
3310;DHT22;1667;53.238;10.394;2024-03-02T04:16:07;11.20;99.90
3310;DHT22;1667;53.238;10.394;2024-03-02T04:21:06;11.20;99.90
3310;DHT22;1667;53.238;10.394;2024-03-02T04:26:05;11.30;99.90
3310;DHT22;1667;53.238;10.394;2024-03-02T04:31:03;11.40;99.90
3310;DHT22;1667;53.238;10.394;2024-03-02T04:36:05;11.40;99.90
3310;DHT22;1667;53.238;10.394;2024-03-02T04:41:06;11.40;99.90
3310;DHT22;1667;53.238;10.394;2024-03-02T04:46:07;11.40;99.90
3310;DHT22;1667;53.238;10.394;2024-03-02T04:51:10;11.40;99.90
3310;DHT22;1667;53.238;10.394;2024-03-02T04:56:09;11.40;99.90
3310;DHT22;1667;53.238;10.394;2024-03-02T05:01:36;11.40;99.90
3310;DHT22;1667;53.238;10.394;2024-03-02T05:06:37;11.40;99.90
3310;DHT22;1667;53.238;10.394;2024-03-02T05:11:37;11.40;99.90
3310;DHT22;1667;53.238;10.394;2024-03-02T05:16:54;11.40;99.90
3310;DHT22;1667;53.238;10.394;2024-03-02T05:21:54;11.40;99.90
3310;DHT22;1667;53.238;10.394;2024-03-02T05:26:53;11.40;99.90
3310;DHT22;1667;53.238;10.394;2024-03-02T05:31:52;11.40;99.90
3310;DHT22;1667;53.238;10.394;2024-03-02T05:36:51;11.30;99.90
3310;DHT22;1667;53.238;10.394;2024-03-02T05:41:52;11.30;99.90
3310;DHT22;1667;53.238;10.394;2024-03-02T05:46:51;11.30;99.90
3310;DHT22;1667;53.238;10.394;2024-03-02T05:51:50;11.20;99.90
3310;DHT22;1667;53.238;10.394;2024-03-02T05:56:52;11.20;99.90
3310;DHT22;1667;53.238;10.394;2024-03-02T06:01:50;11.20;99.90
3310;DHT22;1667;53.238;10.394;2024-03-02T06:06:50;11.20;99.90
3310;DHT22;1667;53.238;10.394;2024-03-02T06:11:49;11.30;99.90
3310;DHT22;1667;53.238;10.394;2024-03-02T06:16:49;11.20;99.90
3310;DHT22;1667;53.238;10.394;2024-03-02T06:21:48;11.20;99.90
3310;DHT22;1667;53.238;10.394;2024-03-02T06:26:47;11.20;99.90
3310;DHT22;1667;53.238;10.394;2024-03-02T06:31:46;11.20;99.90
3310;DHT22;1667;53.238;10.394;2024-03-02T06:36:51;11.20;99.90
3310;DHT22;1667;53.238;10.394;2024-03-02T06:41:50;11.20;99.90
3310;DHT22;1667;53.238;10.394;2024-03-02T06:46:49;11.20;99.90
3310;DHT22;1667;53.238;10.394;2024-03-02T06:51:48;11.20;99.90
3310;DHT22;1667;53.238;10.394;2024-03-02T06:56:49;11.20;99.90
3310;DHT22;1667;53.238;10.394;2024-03-02T07:01:47;11.20;99.90
3310;DHT22;1667;53.238;10.394;2024-03-02T07:06:46;11.20;99.90
3310;DHT22;1667;53.238;10.394;2024-03-02T07:11:45;11.20;99.90
3310;DHT22;1667;53.238;10.394;2024-03-02T07:16:49;11.20;99.90
3310;DHT22;1667;53.238;10.394;2024-03-02T07:21:48;11.20;99.90
3310;DHT22;1667;53.238;10.394;2024-03-02T07:26:48;11.20;99.90
3310;DHT22;1667;53.238;10.394;2024-03-02T07:31:51;11.20;99.90
3310;DHT22;1667;53.238;10.394;2024-03-02T07:36:50;11.20;99.90
3310;DHT22;1667;53.238;10.394;2024-03-02T07:41:49;11.20;99.90
3310;DHT22;1667;53.238;10.394;2024-03-02T07:46:48;11.20;99.90
3310;DHT22;1667;53.238;10.394;2024-03-02T07:51:49;11.30;99.90
3310;DHT22;1667;53.238;10.394;2024-03-02T07:56:49;11.30;99.90
3310;DHT22;1667;53.238;10.394;2024-03-02T08:01:49;11.50;99.90
3310;DHT22;1667;53.238;10.394;2024-03-02T08:06:49;11.90;99.90
3310;DHT22;1667;53.238;10.394;2024-03-02T08:11:48;11.90;99.90
3310;DHT22;1667;53.238;10.394;2024-03-02T08:16:47;11.90;99.90
3310;DHT22;1667;53.238;10.394;2024-03-02T08:21:46;11.90;99.90
3310;DHT22;1667;53.238;10.394;2024-03-02T08:26:46;11.90;99.90
3310;DHT22;1667;53.238;10.394;2024-03-02T08:31:45;12.00;99.90
3310;DHT22;1667;53.238;10.394;2024-03-02T08:36:44;12.00;99.90
3310;DHT22;1667;53.238;10.394;2024-03-02T08:41:46;12.10;99.90
3310;DHT22;1667;53.238;10.394;2024-03-02T08:46:46;12.20;99.90
3310;DHT22;1667;53.238;10.394;2024-03-02T08:51:45;12.30;99.90
3310;DHT22;1667;53.238;10.394;2024-03-02T08:56:54;12.40;99.90
3310;DHT22;1667;53.238;10.394;2024-03-02T09:01:52;12.60;99.90
3310;DHT22;1667;53.238;10.394;2024-03-02T09:06:51;12.70;99.90
3310;DHT22;1667;53.238;10.394;2024-03-02T09:11:50;12.90;99.90
3310;DHT22;1667;53.238;10.394;2024-03-02T09:16:50;13.10;99.90
3310;DHT22;1667;53.238;10.394;2024-03-02T09:21:49;13.30;99.90
3310;DHT22;1667;53.238;10.394;2024-03-02T09:26:48;13.40;99.90
3310;DHT22;1667;53.238;10.394;2024-03-02T09:31:47;13.60;99.90
3310;DHT22;1667;53.238;10.394;2024-03-02T09:36:48;13.80;99.90
3310;DHT22;1667;53.238;10.394;2024-03-02T09:41:49;14.00;99.90
3310;DHT22;1667;53.238;10.394;2024-03-02T09:46:49;14.20;99.90
3310;DHT22;1667;53.238;10.394;2024-03-02T09:51:50;14.40;99.90
3310;DHT22;1667;53.238;10.394;2024-03-02T09:56:51;14.50;99.90
3310;DHT22;1667;53.238;10.394;2024-03-02T10:01:56;14.70;99.90
3310;DHT22;1667;53.238;10.394;2024-03-02T10:07:11;14.80;99.90
3310;DHT22;1667;53.238;10.394;2024-03-02T10:12:13;14.90;99.90
3310;DHT22;1667;53.238;10.394;2024-03-02T10:17:12;14.90;99.90
3310;DHT22;1667;53.238;10.394;2024-03-02T10:22:14;14.80;99.90
3310;DHT22;1667;53.238;10.394;2024-03-02T10:27:16;14.80;99.90
3310;DHT22;1667;53.238;10.394;2024-03-02T10:39:06;14.80;99.90
3310;DHT22;1667;53.238;10.394;2024-03-02T10:44:06;14.80;99.90
3310;DHT22;1667;53.238;10.394;2024-03-02T10:49:06;14.80;99.90
3310;DHT22;1667;53.238;10.394;2024-03-02T10:54:07;14.90;99.90
3310;DHT22;1667;53.238;10.394;2024-03-02T10:59:12;15.10;99.90
3310;DHT22;1667;53.238;10.394;2024-03-02T11:04:16;15.20;99.90
3310;DHT22;1667;53.238;10.394;2024-03-02T11:09:19;15.30;99.90
3310;DHT22;1667;53.238;10.394;2024-03-02T11:14:23;15.30;99.90
3310;DHT22;1667;53.238;10.394;2024-03-02T11:19:22;15.40;99.90
3310;DHT22;1667;53.238;10.394;2024-03-02T11:24:33;15.40;99.90
3310;DHT22;1667;53.238;10.394;2024-03-02T11:29:44;15.50;99.90
3310;DHT22;1667;53.238;10.394;2024-03-02T11:41:14;15.60;99.90
3310;DHT22;1667;53.238;10.394;2024-03-02T11:46:15;15.60;99.90
3310;DHT22;1667;53.238;10.394;2024-03-02T11:51:13;15.60;99.90
3310;DHT22;1667;53.238;10.394;2024-03-02T11:56:13;15.70;99.90
3310;DHT22;1667;53.238;10.394;2024-03-02T12:01:13;15.70;99.90
3310;DHT22;1667;53.238;10.394;2024-03-02T12:06:12;15.80;99.90
3310;DHT22;1667;53.238;10.394;2024-03-02T12:11:14;15.70;99.90
3310;DHT22;1667;53.238;10.394;2024-03-02T12:16:23;15.70;99.90
3310;DHT22;1667;53.238;10.394;2024-03-02T12:21:22;15.70;99.90
3310;DHT22;1667;53.238;10.394;2024-03-02T12:26:23;15.70;99.90
3310;DHT22;1667;53.238;10.394;2024-03-02T12:31:22;15.70;99.90
3310;DHT22;1667;53.238;10.394;2024-03-02T12:36:22;15.70;99.90
3310;DHT22;1667;53.238;10.394;2024-03-02T12:41:23;15.70;99.90
3310;DHT22;1667;53.238;10.394;2024-03-02T12:46:24;15.70;99.90
3310;DHT22;1667;53.238;10.394;2024-03-02T12:51:23;15.80;99.90
3310;DHT22;1667;53.238;10.394;2024-03-02T12:56:24;15.80;99.90
3310;DHT22;1667;53.238;10.394;2024-03-02T13:01:23;15.80;99.90
3310;DHT22;1667;53.238;10.394;2024-03-02T13:06:23;15.90;99.90
3310;DHT22;1667;53.238;10.394;2024-03-02T13:11:24;15.90;99.90
3310;DHT22;1667;53.238;10.394;2024-03-02T13:16:23;15.90;99.90
3310;DHT22;1667;53.238;10.394;2024-03-02T13:21:33;15.90;99.90
3310;DHT22;1667;53.238;10.394;2024-03-02T13:26:33;16.00;99.90
3310;DHT22;1667;53.238;10.394;2024-03-02T13:31:32;16.00;99.90
3310;DHT22;1667;53.238;10.394;2024-03-02T13:36:31;16.00;99.90
3310;DHT22;1667;53.238;10.394;2024-03-02T13:41:30;16.10;99.90
3310;DHT22;1667;53.238;10.394;2024-03-02T13:46:30;16.00;99.90
3310;DHT22;1667;53.238;10.394;2024-03-02T13:51:30;16.00;99.90
3310;DHT22;1667;53.238;10.394;2024-03-02T13:56:31;16.00;99.90
3310;DHT22;1667;53.238;10.394;2024-03-02T14:01:32;16.00;99.90
3310;DHT22;1667;53.238;10.394;2024-03-02T14:06:31;16.00;99.90
3310;DHT22;1667;53.238;10.394;2024-03-02T14:11:30;16.00;99.90
3310;DHT22;1667;53.238;10.394;2024-03-02T14:16:29;15.90;99.90
3310;DHT22;1667;53.238;10.394;2024-03-02T14:21:30;15.90;99.90
3310;DHT22;1667;53.238;10.394;2024-03-02T14:26:29;15.90;99.90
3310;DHT22;1667;53.238;10.394;2024-03-02T14:31:27;15.90;99.90
3310;DHT22;1667;53.238;10.394;2024-03-02T14:36:28;15.80;99.90
3310;DHT22;1667;53.238;10.394;2024-03-02T14:41:28;15.80;99.90
3310;DHT22;1667;53.238;10.394;2024-03-02T14:46:26;15.80;99.90
3310;DHT22;1667;53.238;10.394;2024-03-02T14:51:26;15.80;99.90
3310;DHT22;1667;53.238;10.394;2024-03-02T14:56:26;15.80;99.90
3310;DHT22;1667;53.238;10.394;2024-03-02T15:01:25;15.80;99.90
3310;DHT22;1667;53.238;10.394;2024-03-02T15:06:43;15.70;99.90
3310;DHT22;1667;53.238;10.394;2024-03-02T15:11:44;15.70;99.90
3310;DHT22;1667;53.238;10.394;2024-03-02T15:16:43;15.60;99.90
3310;DHT22;1667;53.238;10.394;2024-03-02T15:21:41;15.70;99.90
3310;DHT22;1667;53.238;10.394;2024-03-02T15:26:40;15.70;99.90
3310;DHT22;1667;53.238;10.394;2024-03-02T15:31:41;15.70;99.90
3310;DHT22;1667;53.238;10.394;2024-03-02T15:36:40;15.70;99.90
3310;DHT22;1667;53.238;10.394;2024-03-02T15:41:39;15.70;99.90
3310;DHT22;1667;53.238;10.394;2024-03-02T15:46:38;15.70;99.90
3310;DHT22;1667;53.238;10.394;2024-03-02T15:51:39;15.60;99.90
3310;DHT22;1667;53.238;10.394;2024-03-02T15:56:42;15.60;99.90
3310;DHT22;1667;53.238;10.394;2024-03-02T16:01:40;15.60;99.90
3310;DHT22;1667;53.238;10.394;2024-03-02T16:06:42;15.60;99.90
3310;DHT22;1667;53.238;10.394;2024-03-02T16:11:41;15.60;99.90
3310;DHT22;1667;53.238;10.394;2024-03-02T16:16:40;15.50;99.90
3310;DHT22;1667;53.238;10.394;2024-03-02T16:21:39;15.50;99.90
3310;DHT22;1667;53.238;10.394;2024-03-02T16:26:40;15.30;99.90
3310;DHT22;1667;53.238;10.394;2024-03-02T16:31:38;15.30;99.90
3310;DHT22;1667;53.238;10.394;2024-03-02T16:36:37;15.20;99.90
3310;DHT22;1667;53.238;10.394;2024-03-02T16:41:39;15.20;99.90
3310;DHT22;1667;53.238;10.394;2024-03-02T16:46:44;15.10;99.90
3310;DHT22;1667;53.238;10.394;2024-03-02T16:51:44;15.00;99.90
3310;DHT22;1667;53.238;10.394;2024-03-02T16:56:45;14.90;99.90
3310;DHT22;1667;53.238;10.394;2024-03-02T17:01:45;14.80;99.90
3310;DHT22;1667;53.238;10.394;2024-03-02T17:06:44;14.70;99.90
3310;DHT22;1667;53.238;10.394;2024-03-02T17:11:46;14.70;99.90
3310;DHT22;1667;53.238;10.394;2024-03-02T17:16:45;14.70;99.90
3310;DHT22;1667;53.238;10.394;2024-03-02T17:21:44;14.60;99.90
3310;DHT22;1667;53.238;10.394;2024-03-02T17:26:43;14.50;99.90
3310;DHT22;1667;53.238;10.394;2024-03-02T17:31:43;14.30;99.90
3310;DHT22;1667;53.238;10.394;2024-03-02T17:36:42;14.20;99.90
3310;DHT22;1667;53.238;10.394;2024-03-02T17:41:41;14.20;99.90
3310;DHT22;1667;53.238;10.394;2024-03-02T17:46:39;14.10;99.90
3310;DHT22;1667;53.238;10.394;2024-03-02T17:51:40;14.00;99.90
3310;DHT22;1667;53.238;10.394;2024-03-02T17:56:38;14.00;99.90
3310;DHT22;1667;53.238;10.394;2024-03-02T18:01:37;13.90;99.90
3310;DHT22;1667;53.238;10.394;2024-03-02T18:06:36;13.80;99.90
3310;DHT22;1667;53.238;10.394;2024-03-02T18:11:35;13.70;99.90
3310;DHT22;1667;53.238;10.394;2024-03-02T18:16:35;13.60;99.90
3310;DHT22;1667;53.238;10.394;2024-03-02T18:21:34;13.50;99.90
3310;DHT22;1667;53.238;10.394;2024-03-02T18:26:33;13.40;99.90
3310;DHT22;1667;53.238;10.394;2024-03-02T18:31:34;13.20;99.90
3310;DHT22;1667;53.238;10.394;2024-03-02T18:36:33;13.20;99.90
3310;DHT22;1667;53.238;10.394;2024-03-02T18:41:32;13.20;99.90
3310;DHT22;1667;53.238;10.394;2024-03-02T18:46:31;13.30;99.90
3310;DHT22;1667;53.238;10.394;2024-03-02T18:51:31;13.30;99.90
3310;DHT22;1667;53.238;10.394;2024-03-02T18:56:31;13.30;99.90
3310;DHT22;1667;53.238;10.394;2024-03-02T19:01:29;13.30;99.90
3310;DHT22;1667;53.238;10.394;2024-03-02T19:06:28;13.30;99.90
3310;DHT22;1667;53.238;10.394;2024-03-02T19:11:28;13.20;99.90
3310;DHT22;1667;53.238;10.394;2024-03-02T19:16:27;13.20;99.90
3310;DHT22;1667;53.238;10.394;2024-03-02T19:21:26;13.10;99.90
3310;DHT22;1667;53.238;10.394;2024-03-02T19:26:26;13.10;99.90
3310;DHT22;1667;53.238;10.394;2024-03-02T19:31:25;13.10;99.90
3310;DHT22;1667;53.238;10.394;2024-03-02T19:36:24;13.00;99.90
3310;DHT22;1667;53.238;10.394;2024-03-02T19:41:25;13.00;99.90
3310;DHT22;1667;53.238;10.394;2024-03-02T19:46:26;13.00;99.90
3310;DHT22;1667;53.238;10.394;2024-03-02T19:51:25;12.90;99.90
3310;DHT22;1667;53.238;10.394;2024-03-02T19:56:26;12.80;99.90
3310;DHT22;1667;53.238;10.394;2024-03-02T20:01:27;12.70;99.90
3310;DHT22;1667;53.238;10.394;2024-03-02T20:06:26;12.80;99.90
3310;DHT22;1667;53.238;10.394;2024-03-02T20:11:25;12.70;99.90
3310;DHT22;1667;53.238;10.394;2024-03-02T20:16:30;12.70;99.90
3310;DHT22;1667;53.238;10.394;2024-03-02T20:21:29;12.60;99.90
3310;DHT22;1667;53.238;10.394;2024-03-02T20:26:28;12.50;99.90
3310;DHT22;1667;53.238;10.394;2024-03-02T20:31:30;12.40;99.90
3310;DHT22;1667;53.238;10.394;2024-03-02T20:36:28;12.40;99.90
3310;DHT22;1667;53.238;10.394;2024-03-02T20:41:27;12.40;99.90
3310;DHT22;1667;53.238;10.394;2024-03-02T20:46:26;12.40;99.90
3310;DHT22;1667;53.238;10.394;2024-03-02T20:51:27;12.30;99.90
3310;DHT22;1667;53.238;10.394;2024-03-02T20:56:27;12.30;99.90
3310;DHT22;1667;53.238;10.394;2024-03-02T21:01:25;12.20;99.90
3310;DHT22;1667;53.238;10.394;2024-03-02T21:06:24;12.20;99.90
3310;DHT22;1667;53.238;10.394;2024-03-02T21:11:24;12.20;99.90
3310;DHT22;1667;53.238;10.394;2024-03-02T21:16:23;12.10;99.90
3310;DHT22;1667;53.238;10.394;2024-03-02T21:21:21;12.10;99.90
3310;DHT22;1667;53.238;10.394;2024-03-02T21:33:09;12.20;99.90
3310;DHT22;1667;53.238;10.394;2024-03-02T21:38:08;12.10;99.90
3310;DHT22;1667;53.238;10.394;2024-03-02T21:43:07;12.10;99.90
3310;DHT22;1667;53.238;10.394;2024-03-02T21:48:07;12.20;99.90
3310;DHT22;1667;53.238;10.394;2024-03-02T21:59:57;12.10;99.90
3310;DHT22;1667;53.238;10.394;2024-03-02T22:04:55;12.10;99.90
3310;DHT22;1667;53.238;10.394;2024-03-02T22:09:56;12.10;99.90
3310;DHT22;1667;53.238;10.394;2024-03-02T22:14:56;12.10;99.90
3310;DHT22;1667;53.238;10.394;2024-03-02T22:19:56;12.10;99.90
3310;DHT22;1667;53.238;10.394;2024-03-02T22:24:55;12.10;99.90
3310;DHT22;1667;53.238;10.394;2024-03-02T22:29:54;12.10;99.90
3310;DHT22;1667;53.238;10.394;2024-03-02T22:34:55;12.00;99.90
3310;DHT22;1667;53.238;10.394;2024-03-02T22:39:54;12.00;99.90
3310;DHT22;1667;53.238;10.394;2024-03-02T22:44:53;12.00;99.90
3310;DHT22;1667;53.238;10.394;2024-03-02T22:56:42;11.90;99.90
3310;DHT22;1667;53.238;10.394;2024-03-02T23:01:42;11.80;99.90
3310;DHT22;1667;53.238;10.394;2024-03-02T23:06:41;11.60;99.90
3310;DHT22;1667;53.238;10.394;2024-03-02T23:11:42;11.50;99.90
3310;DHT22;1667;53.238;10.394;2024-03-02T23:16:40;11.50;99.90
3310;DHT22;1667;53.238;10.394;2024-03-02T23:21:41;11.50;99.90
3310;DHT22;1667;53.238;10.394;2024-03-02T23:26:42;11.40;99.90
3310;DHT22;1667;53.238;10.394;2024-03-02T23:31:41;11.30;99.90
3310;DHT22;1667;53.238;10.394;2024-03-02T23:36:40;11.40;99.90
3310;DHT22;1667;53.238;10.394;2024-03-02T23:41:39;11.40;99.90
3310;DHT22;1667;53.238;10.394;2024-03-02T23:46:40;11.40;99.90
3310;DHT22;1667;53.238;10.394;2024-03-02T23:51:40;11.30;99.90
3310;DHT22;1667;53.238;10.394;2024-03-02T23:56:39;11.40;99.90
